sensor_id;sensor_type;location;lat;lon;timestamp;P1;durP1;ratioP1;P2;durP2;ratioP2
239;SDS011;104;53.590;10.004;2023-02-12T00:01:13;106.50;;;45.20;;
239;SDS011;104;53.590;10.004;2023-02-12T00:03:41;116.97;;;49.70;;
239;SDS011;104;53.590;10.004;2023-02-12T00:06:08;111.77;;;47.90;;
239;SDS011;104;53.590;10.004;2023-02-12T00:08:37;126.03;;;49.00;;
239;SDS011;104;53.590;10.004;2023-02-12T00:11:09;113.90;;;48.10;;
239;SDS011;104;53.590;10.004;2023-02-12T00:13:37;104.07;;;44.90;;
239;SDS011;104;53.590;10.004;2023-02-12T00:16:05;97.10;;;40.60;;
239;SDS011;104;53.590;10.004;2023-02-12T00:18:32;102.43;;;44.20;;
239;SDS011;104;53.590;10.004;2023-02-12T00:21:00;103.77;;;41.77;;
239;SDS011;104;53.590;10.004;2023-02-12T00:23:27;92.23;;;40.60;;
239;SDS011;104;53.590;10.004;2023-02-12T00:25:56;96.27;;;41.83;;
239;SDS011;104;53.590;10.004;2023-02-12T00:28:23;98.73;;;44.20;;
239;SDS011;104;53.590;10.004;2023-02-12T00:30:56;101.33;;;43.23;;
239;SDS011;104;53.590;10.004;2023-02-12T00:33:23;92.40;;;39.77;;
239;SDS011;104;53.590;10.004;2023-02-12T00:35:54;96.50;;;38.50;;
239;SDS011;104;53.590;10.004;2023-02-12T00:38:21;83.87;;;37.13;;
239;SDS011;104;53.590;10.004;2023-02-12T00:40:49;83.20;;;37.97;;
239;SDS011;104;53.590;10.004;2023-02-12T00:43:17;116.00;;;45.10;;
239;SDS011;104;53.590;10.004;2023-02-12T00:45:45;103.70;;;44.40;;
239;SDS011;104;53.590;10.004;2023-02-12T00:48:12;115.43;;;46.23;;
239;SDS011;104;53.590;10.004;2023-02-12T00:50:42;114.37;;;48.27;;
239;SDS011;104;53.590;10.004;2023-02-12T00:53:10;113.60;;;46.40;;
239;SDS011;104;53.590;10.004;2023-02-12T00:55:37;105.17;;;44.57;;
239;SDS011;104;53.590;10.004;2023-02-12T00:58:04;118.67;;;46.70;;
239;SDS011;104;53.590;10.004;2023-02-12T01:00:33;125.83;;;52.87;;
239;SDS011;104;53.590;10.004;2023-02-12T01:03:00;124.13;;;50.60;;
239;SDS011;104;53.590;10.004;2023-02-12T01:05:28;95.90;;;42.23;;
239;SDS011;104;53.590;10.004;2023-02-12T01:07:56;125.30;;;52.30;;
239;SDS011;104;53.590;10.004;2023-02-12T01:10:23;122.57;;;50.33;;
239;SDS011;104;53.590;10.004;2023-02-12T01:12:50;119.27;;;47.37;;
239;SDS011;104;53.590;10.004;2023-02-12T01:15:18;102.93;;;44.23;;
239;SDS011;104;53.590;10.004;2023-02-12T01:17:47;133.30;;;52.60;;
239;SDS011;104;53.590;10.004;2023-02-12T01:20:16;115.00;;;48.63;;
239;SDS011;104;53.590;10.004;2023-02-12T01:22:43;114.03;;;46.97;;
239;SDS011;104;53.590;10.004;2023-02-12T01:25:11;104.90;;;43.40;;
239;SDS011;104;53.590;10.004;2023-02-12T01:27:38;118.33;;;47.47;;
239;SDS011;104;53.590;10.004;2023-02-12T01:30:06;127.03;;;50.97;;
239;SDS011;104;53.590;10.004;2023-02-12T01:32:35;127.13;;;51.50;;
239;SDS011;104;53.590;10.004;2023-02-12T01:35:04;125.10;;;50.23;;
239;SDS011;104;53.590;10.004;2023-02-12T01:37:34;125.97;;;51.37;;
239;SDS011;104;53.590;10.004;2023-02-12T01:40:01;124.77;;;51.97;;
239;SDS011;104;53.590;10.004;2023-02-12T01:42:29;122.87;;;51.27;;
239;SDS011;104;53.590;10.004;2023-02-12T01:48:10;118.30;;;49.07;;
239;SDS011;104;53.590;10.004;2023-02-12T01:50:40;121.47;;;50.93;;
239;SDS011;104;53.590;10.004;2023-02-12T01:53:08;123.83;;;49.80;;
239;SDS011;104;53.590;10.004;2023-02-12T01:55:37;123.97;;;49.60;;
239;SDS011;104;53.590;10.004;2023-02-12T01:58:04;118.60;;;49.60;;
239;SDS011;104;53.590;10.004;2023-02-12T02:00:34;122.83;;;50.43;;
239;SDS011;104;53.590;10.004;2023-02-12T02:03:01;122.93;;;49.87;;
239;SDS011;104;53.590;10.004;2023-02-12T02:05:30;117.43;;;48.80;;
239;SDS011;104;53.590;10.004;2023-02-12T02:08:00;124.83;;;50.23;;
239;SDS011;104;53.590;10.004;2023-02-12T02:10:28;109.13;;;47.17;;
239;SDS011;104;53.590;10.004;2023-02-12T02:12:55;120.53;;;48.63;;
239;SDS011;104;53.590;10.004;2023-02-12T02:15:40;113.67;;;48.70;;
239;SDS011;104;53.590;10.004;2023-02-12T02:18:11;119.90;;;48.63;;
239;SDS011;104;53.590;10.004;2023-02-12T02:21:04;116.27;;;47.80;;
239;SDS011;104;53.590;10.004;2023-02-12T02:24:09;107.23;;;47.53;;
239;SDS011;104;53.590;10.004;2023-02-12T02:27:12;108.80;;;47.13;;
239;SDS011;104;53.590;10.004;2023-02-12T02:29:46;132.87;;;49.97;;
239;SDS011;104;53.590;10.004;2023-02-12T02:32:20;123.40;;;48.60;;
239;SDS011;104;53.590;10.004;2023-02-12T02:34:51;116.27;;;47.80;;
239;SDS011;104;53.590;10.004;2023-02-12T02:37:27;115.40;;;49.30;;
239;SDS011;104;53.590;10.004;2023-02-12T02:39:58;123.10;;;49.17;;
239;SDS011;104;53.590;10.004;2023-02-12T02:42:36;126.77;;;50.80;;
239;SDS011;104;53.590;10.004;2023-02-12T02:45:07;112.23;;;48.03;;
239;SDS011;104;53.590;10.004;2023-02-12T02:47:39;119.13;;;50.40;;
239;SDS011;104;53.590;10.004;2023-02-12T02:50:08;128.10;;;50.50;;
239;SDS011;104;53.590;10.004;2023-02-12T02:52:39;125.00;;;52.10;;
239;SDS011;104;53.590;10.004;2023-02-12T02:55:09;131.77;;;52.30;;
239;SDS011;104;53.590;10.004;2023-02-12T02:57:41;115.07;;;49.83;;
239;SDS011;104;53.590;10.004;2023-02-12T03:00:15;132.37;;;51.40;;
239;SDS011;104;53.590;10.004;2023-02-12T03:02:47;123.13;;;51.60;;
239;SDS011;104;53.590;10.004;2023-02-12T03:05:21;132.40;;;52.67;;
239;SDS011;104;53.590;10.004;2023-02-12T03:07:51;128.10;;;51.30;;
239;SDS011;104;53.590;10.004;2023-02-12T03:10:24;135.87;;;50.80;;
239;SDS011;104;53.590;10.004;2023-02-12T03:12:53;132.70;;;53.27;;
239;SDS011;104;53.590;10.004;2023-02-12T03:15:25;132.17;;;53.00;;
239;SDS011;104;53.590;10.004;2023-02-12T03:17:59;115.83;;;47.90;;
239;SDS011;104;53.590;10.004;2023-02-12T03:20:32;129.43;;;49.10;;
239;SDS011;104;53.590;10.004;2023-02-12T03:23:04;112.60;;;46.33;;
239;SDS011;104;53.590;10.004;2023-02-12T03:25:32;112.27;;;45.90;;
239;SDS011;104;53.590;10.004;2023-02-12T03:28:05;110.47;;;46.60;;
239;SDS011;104;53.590;10.004;2023-02-12T03:30:37;112.90;;;46.77;;
239;SDS011;104;53.590;10.004;2023-02-12T03:33:14;132.83;;;49.37;;
239;SDS011;104;53.590;10.004;2023-02-12T03:35:43;126.43;;;46.80;;
239;SDS011;104;53.590;10.004;2023-02-12T03:38:23;120.20;;;48.43;;
239;SDS011;104;53.590;10.004;2023-02-12T03:40:54;118.40;;;48.27;;
239;SDS011;104;53.590;10.004;2023-02-12T03:43:23;124.00;;;49.07;;
239;SDS011;104;53.590;10.004;2023-02-12T03:45:54;128.43;;;49.50;;
239;SDS011;104;53.590;10.004;2023-02-12T03:48:27;122.03;;;48.87;;
239;SDS011;104;53.590;10.004;2023-02-12T03:50:59;114.00;;;46.43;;
239;SDS011;104;53.590;10.004;2023-02-12T03:53:28;111.27;;;45.47;;
239;SDS011;104;53.590;10.004;2023-02-12T03:55:58;120.00;;;48.67;;
239;SDS011;104;53.590;10.004;2023-02-12T03:58:29;117.37;;;48.90;;
239;SDS011;104;53.590;10.004;2023-02-12T04:01:00;127.70;;;47.37;;
239;SDS011;104;53.590;10.004;2023-02-12T04:03:29;124.47;;;49.83;;
239;SDS011;104;53.590;10.004;2023-02-12T04:05:57;111.30;;;47.07;;
239;SDS011;104;53.590;10.004;2023-02-12T04:08:25;137.10;;;50.63;;
239;SDS011;104;53.590;10.004;2023-02-12T04:10:55;108.53;;;46.20;;
239;SDS011;104;53.590;10.004;2023-02-12T04:13:35;121.77;;;47.20;;
239;SDS011;104;53.590;10.004;2023-02-12T04:16:13;111.67;;;46.70;;
239;SDS011;104;53.590;10.004;2023-02-12T04:18:48;124.53;;;48.67;;
239;SDS011;104;53.590;10.004;2023-02-12T04:21:18;109.87;;;45.53;;
239;SDS011;104;53.590;10.004;2023-02-12T04:23:47;114.47;;;45.63;;
239;SDS011;104;53.590;10.004;2023-02-12T04:26:23;129.83;;;47.63;;
239;SDS011;104;53.590;10.004;2023-02-12T04:28:59;112.87;;;46.63;;
239;SDS011;104;53.590;10.004;2023-02-12T04:31:35;111.90;;;45.87;;
239;SDS011;104;53.590;10.004;2023-02-12T04:34:09;113.30;;;46.57;;
239;SDS011;104;53.590;10.004;2023-02-12T04:36:43;112.60;;;45.60;;
239;SDS011;104;53.590;10.004;2023-02-12T04:39:16;106.53;;;46.20;;
239;SDS011;104;53.590;10.004;2023-02-12T04:41:45;110.43;;;43.43;;
239;SDS011;104;53.590;10.004;2023-02-12T04:44:13;108.13;;;45.40;;
239;SDS011;104;53.590;10.004;2023-02-12T04:46:40;106.37;;;44.77;;
239;SDS011;104;53.590;10.004;2023-02-12T04:49:10;110.30;;;45.93;;
239;SDS011;104;53.590;10.004;2023-02-12T04:51:40;109.33;;;44.80;;
239;SDS011;104;53.590;10.004;2023-02-12T04:54:07;97.47;;;42.40;;
239;SDS011;104;53.590;10.004;2023-02-12T04:56:35;113.47;;;43.37;;
239;SDS011;104;53.590;10.004;2023-02-12T04:59:02;101.20;;;40.57;;
239;SDS011;104;53.590;10.004;2023-02-12T05:01:29;104.13;;;41.77;;
239;SDS011;104;53.590;10.004;2023-02-12T05:03:56;107.00;;;41.13;;
239;SDS011;104;53.590;10.004;2023-02-12T05:06:25;97.13;;;37.80;;
239;SDS011;104;53.590;10.004;2023-02-12T05:08:54;96.57;;;37.13;;
239;SDS011;104;53.590;10.004;2023-02-12T05:11:21;106.87;;;44.53;;
239;SDS011;104;53.590;10.004;2023-02-12T05:13:49;131.83;;;44.40;;
239;SDS011;104;53.590;10.004;2023-02-12T05:16:16;105.70;;;44.03;;
239;SDS011;104;53.590;10.004;2023-02-12T05:18:44;101.90;;;42.23;;
239;SDS011;104;53.590;10.004;2023-02-12T05:21:11;104.33;;;43.33;;
239;SDS011;104;53.590;10.004;2023-02-12T05:23:40;106.03;;;38.90;;
239;SDS011;104;53.590;10.004;2023-02-12T05:26:09;106.03;;;39.33;;
239;SDS011;104;53.590;10.004;2023-02-12T05:28:36;99.70;;;38.20;;
239;SDS011;104;53.590;10.004;2023-02-12T05:31:04;100.00;;;36.70;;
239;SDS011;104;53.590;10.004;2023-02-12T05:33:33;109.93;;;40.97;;
239;SDS011;104;53.590;10.004;2023-02-12T05:36:04;105.43;;;41.20;;
239;SDS011;104;53.590;10.004;2023-02-12T05:38:35;97.27;;;39.70;;
239;SDS011;104;53.590;10.004;2023-02-12T05:41:04;98.70;;;40.10;;
239;SDS011;104;53.590;10.004;2023-02-12T05:43:32;107.37;;;42.97;;
239;SDS011;104;53.590;10.004;2023-02-12T05:46:00;105.87;;;42.50;;
239;SDS011;104;53.590;10.004;2023-02-12T05:48:27;103.60;;;43.50;;
239;SDS011;104;53.590;10.004;2023-02-12T05:51:00;105.73;;;42.07;;
239;SDS011;104;53.590;10.004;2023-02-12T05:53:28;107.77;;;43.77;;
239;SDS011;104;53.590;10.004;2023-02-12T05:56:05;111.90;;;41.57;;
239;SDS011;104;53.590;10.004;2023-02-12T05:58:36;111.90;;;43.17;;
239;SDS011;104;53.590;10.004;2023-02-12T06:01:07;107.67;;;44.40;;
239;SDS011;104;53.590;10.004;2023-02-12T06:03:35;104.33;;;42.50;;
239;SDS011;104;53.590;10.004;2023-02-12T06:06:03;111.57;;;43.60;;
239;SDS011;104;53.590;10.004;2023-02-12T06:08:30;113.83;;;42.10;;
239;SDS011;104;53.590;10.004;2023-02-12T06:10:58;111.47;;;43.13;;
239;SDS011;104;53.590;10.004;2023-02-12T06:13:28;98.63;;;42.83;;
239;SDS011;104;53.590;10.004;2023-02-12T06:15:56;106.70;;;42.00;;
239;SDS011;104;53.590;10.004;2023-02-12T06:18:24;98.30;;;40.73;;
239;SDS011;104;53.590;10.004;2023-02-12T06:20:51;106.07;;;44.13;;
239;SDS011;104;53.590;10.004;2023-02-12T06:23:19;107.83;;;40.70;;
239;SDS011;104;53.590;10.004;2023-02-12T06:25:46;113.30;;;43.93;;
239;SDS011;104;53.590;10.004;2023-02-12T06:28:13;112.10;;;40.83;;
239;SDS011;104;53.590;10.004;2023-02-12T06:30:42;108.13;;;42.23;;
239;SDS011;104;53.590;10.004;2023-02-12T06:33:10;118.43;;;46.70;;
239;SDS011;104;53.590;10.004;2023-02-12T06:35:37;95.27;;;40.03;;
239;SDS011;104;53.590;10.004;2023-02-12T06:38:04;118.97;;;45.00;;
239;SDS011;104;53.590;10.004;2023-02-12T06:40:32;101.57;;;45.63;;
239;SDS011;104;53.590;10.004;2023-02-12T06:42:59;117.17;;;45.00;;
239;SDS011;104;53.590;10.004;2023-02-12T06:45:28;123.17;;;46.23;;
239;SDS011;104;53.590;10.004;2023-02-12T06:47:57;105.37;;;42.07;;
239;SDS011;104;53.590;10.004;2023-02-12T06:50:24;111.43;;;45.50;;
239;SDS011;104;53.590;10.004;2023-02-12T06:52:51;126.20;;;43.77;;
239;SDS011;104;53.590;10.004;2023-02-12T06:55:18;115.73;;;44.30;;
239;SDS011;104;53.590;10.004;2023-02-12T06:57:45;110.70;;;44.63;;
239;SDS011;104;53.590;10.004;2023-02-12T07:00:12;113.27;;;46.30;;
239;SDS011;104;53.590;10.004;2023-02-12T07:02:40;102.03;;;40.40;;
239;SDS011;104;53.590;10.004;2023-02-12T07:05:08;105.37;;;42.90;;
239;SDS011;104;53.590;10.004;2023-02-12T07:07:35;102.50;;;41.50;;
239;SDS011;104;53.590;10.004;2023-02-12T07:10:02;102.33;;;36.47;;
239;SDS011;104;53.590;10.004;2023-02-12T07:12:29;94.77;;;38.33;;
239;SDS011;104;53.590;10.004;2023-02-12T07:14:59;96.03;;;37.93;;
239;SDS011;104;53.590;10.004;2023-02-12T07:17:27;82.43;;;36.13;;
239;SDS011;104;53.590;10.004;2023-02-12T07:19:55;97.00;;;35.67;;
239;SDS011;104;53.590;10.004;2023-02-12T07:22:23;84.50;;;34.03;;
239;SDS011;104;53.590;10.004;2023-02-12T07:24:50;77.97;;;33.13;;
239;SDS011;104;53.590;10.004;2023-02-12T07:27:17;83.90;;;32.80;;
239;SDS011;104;53.590;10.004;2023-02-12T07:29:45;87.77;;;33.03;;
239;SDS011;104;53.590;10.004;2023-02-12T07:32:12;87.40;;;36.23;;
239;SDS011;104;53.590;10.004;2023-02-12T07:34:39;91.07;;;37.80;;
239;SDS011;104;53.590;10.004;2023-02-12T07:37:06;98.60;;;40.03;;
239;SDS011;104;53.590;10.004;2023-02-12T07:39:38;105.90;;;42.53;;
239;SDS011;104;53.590;10.004;2023-02-12T07:42:05;113.03;;;43.17;;
239;SDS011;104;53.590;10.004;2023-02-12T07:44:32;105.30;;;40.63;;
239;SDS011;104;53.590;10.004;2023-02-12T07:47:00;107.73;;;43.10;;
239;SDS011;104;53.590;10.004;2023-02-12T07:49:29;102.83;;;42.07;;
239;SDS011;104;53.590;10.004;2023-02-12T07:51:56;106.00;;;45.77;;
239;SDS011;104;53.590;10.004;2023-02-12T07:54:24;99.93;;;41.73;;
239;SDS011;104;53.590;10.004;2023-02-12T07:56:53;94.30;;;39.43;;
239;SDS011;104;53.590;10.004;2023-02-12T07:59:20;109.90;;;43.47;;
239;SDS011;104;53.590;10.004;2023-02-12T08:01:48;103.57;;;43.13;;
239;SDS011;104;53.590;10.004;2023-02-12T08:04:16;95.60;;;39.87;;
239;SDS011;104;53.590;10.004;2023-02-12T08:06:46;75.03;;;34.53;;
239;SDS011;104;53.590;10.004;2023-02-12T08:09:15;88.03;;;36.17;;
239;SDS011;104;53.590;10.004;2023-02-12T08:11:43;101.90;;;38.90;;
239;SDS011;104;53.590;10.004;2023-02-12T08:14:13;96.33;;;35.83;;
239;SDS011;104;53.590;10.004;2023-02-12T08:16:41;92.97;;;38.07;;
239;SDS011;104;53.590;10.004;2023-02-12T08:19:09;90.90;;;37.70;;
239;SDS011;104;53.590;10.004;2023-02-12T08:21:37;95.57;;;39.83;;
239;SDS011;104;53.590;10.004;2023-02-12T08:24:04;107.60;;;41.87;;
239;SDS011;104;53.590;10.004;2023-02-12T08:26:32;107.43;;;43.37;;
239;SDS011;104;53.590;10.004;2023-02-12T08:29:02;106.87;;;43.83;;
239;SDS011;104;53.590;10.004;2023-02-12T08:31:33;98.07;;;42.07;;
239;SDS011;104;53.590;10.004;2023-02-12T08:34:01;95.73;;;41.83;;
239;SDS011;104;53.590;10.004;2023-02-12T08:36:29;100.73;;;41.90;;
239;SDS011;104;53.590;10.004;2023-02-12T08:39:00;90.03;;;39.17;;
239;SDS011;104;53.590;10.004;2023-02-12T08:41:28;97.17;;;40.57;;
239;SDS011;104;53.590;10.004;2023-02-12T08:43:56;96.13;;;41.90;;
239;SDS011;104;53.590;10.004;2023-02-12T08:46:25;96.87;;;40.80;;
239;SDS011;104;53.590;10.004;2023-02-12T08:48:55;91.33;;;38.30;;
239;SDS011;104;53.590;10.004;2023-02-12T08:51:24;85.10;;;39.03;;
239;SDS011;104;53.590;10.004;2023-02-12T08:53:53;90.73;;;38.23;;
239;SDS011;104;53.590;10.004;2023-02-12T08:56:22;88.60;;;38.57;;
239;SDS011;104;53.590;10.004;2023-02-12T08:58:50;86.10;;;36.80;;
239;SDS011;104;53.590;10.004;2023-02-12T09:01:18;84.83;;;37.17;;
239;SDS011;104;53.590;10.004;2023-02-12T09:03:47;87.47;;;37.20;;
239;SDS011;104;53.590;10.004;2023-02-12T09:06:16;79.00;;;36.63;;
239;SDS011;104;53.590;10.004;2023-02-12T09:08:46;86.27;;;35.70;;
239;SDS011;104;53.590;10.004;2023-02-12T09:11:14;88.10;;;37.13;;
239;SDS011;104;53.590;10.004;2023-02-12T09:13:43;93.73;;;37.90;;
239;SDS011;104;53.590;10.004;2023-02-12T09:16:11;79.33;;;34.70;;
239;SDS011;104;53.590;10.004;2023-02-12T09:18:39;76.53;;;34.67;;
239;SDS011;104;53.590;10.004;2023-02-12T09:21:08;71.53;;;33.13;;
239;SDS011;104;53.590;10.004;2023-02-12T09:23:39;74.20;;;33.40;;
239;SDS011;104;53.590;10.004;2023-02-12T09:26:07;74.63;;;32.90;;
239;SDS011;104;53.590;10.004;2023-02-12T09:28:35;74.10;;;33.50;;
239;SDS011;104;53.590;10.004;2023-02-12T09:31:05;72.20;;;32.80;;
239;SDS011;104;53.590;10.004;2023-02-12T09:33:33;75.80;;;32.23;;
239;SDS011;104;53.590;10.004;2023-02-12T09:36:01;75.63;;;33.47;;
239;SDS011;104;53.590;10.004;2023-02-12T09:38:28;73.10;;;34.37;;
239;SDS011;104;53.590;10.004;2023-02-12T09:41:04;86.83;;;35.27;;
239;SDS011;104;53.590;10.004;2023-02-12T09:43:52;84.20;;;34.77;;
239;SDS011;104;53.590;10.004;2023-02-12T09:46:27;81.33;;;35.50;;
239;SDS011;104;53.590;10.004;2023-02-12T09:48:58;86.57;;;35.50;;
239;SDS011;104;53.590;10.004;2023-02-12T09:51:32;71.50;;;31.63;;
239;SDS011;104;53.590;10.004;2023-02-12T09:54:02;73.93;;;31.30;;
239;SDS011;104;53.590;10.004;2023-02-12T09:56:33;63.17;;;28.90;;
239;SDS011;104;53.590;10.004;2023-02-12T09:59:04;71.47;;;29.77;;
239;SDS011;104;53.590;10.004;2023-02-12T10:01:33;68.60;;;28.67;;
239;SDS011;104;53.590;10.004;2023-02-12T10:04:00;64.40;;;29.17;;
239;SDS011;104;53.590;10.004;2023-02-12T10:06:32;62.00;;;28.80;;
239;SDS011;104;53.590;10.004;2023-02-12T10:12:05;67.03;;;29.10;;
239;SDS011;104;53.590;10.004;2023-02-12T10:14:43;66.40;;;28.30;;
239;SDS011;104;53.590;10.004;2023-02-12T10:17:32;65.20;;;27.10;;
239;SDS011;104;53.590;10.004;2023-02-12T10:20:14;63.90;;;28.20;;
239;SDS011;104;53.590;10.004;2023-02-12T10:23:01;61.20;;;27.53;;
239;SDS011;104;53.590;10.004;2023-02-12T10:25:42;60.53;;;28.17;;
239;SDS011;104;53.590;10.004;2023-02-12T10:28:16;58.57;;;26.03;;
239;SDS011;104;53.590;10.004;2023-02-12T10:30:47;62.43;;;28.23;;
239;SDS011;104;53.590;10.004;2023-02-12T10:33:20;55.07;;;25.10;;
239;SDS011;104;53.590;10.004;2023-02-12T10:35:53;62.60;;;27.10;;
239;SDS011;104;53.590;10.004;2023-02-12T10:38:27;52.60;;;25.17;;
239;SDS011;104;53.590;10.004;2023-02-12T10:40:57;60.03;;;25.40;;
239;SDS011;104;53.590;10.004;2023-02-12T10:43:28;61.80;;;27.03;;
239;SDS011;104;53.590;10.004;2023-02-12T10:45:55;52.10;;;24.77;;
239;SDS011;104;53.590;10.004;2023-02-12T10:48:24;59.80;;;27.00;;
239;SDS011;104;53.590;10.004;2023-02-12T10:51:01;61.40;;;27.37;;
239;SDS011;104;53.590;10.004;2023-02-12T10:53:43;57.07;;;26.07;;
239;SDS011;104;53.590;10.004;2023-02-12T10:56:13;64.73;;;28.07;;
239;SDS011;104;53.590;10.004;2023-02-12T10:58:50;54.50;;;26.80;;
239;SDS011;104;53.590;10.004;2023-02-12T11:01:21;59.70;;;27.63;;
239;SDS011;104;53.590;10.004;2023-02-12T11:03:51;57.00;;;25.57;;
239;SDS011;104;53.590;10.004;2023-02-12T11:06:20;65.47;;;27.63;;
239;SDS011;104;53.590;10.004;2023-02-12T11:08:48;58.53;;;26.87;;
239;SDS011;104;53.590;10.004;2023-02-12T11:11:18;54.77;;;25.70;;
239;SDS011;104;53.590;10.004;2023-02-12T11:13:52;55.73;;;25.57;;
239;SDS011;104;53.590;10.004;2023-02-12T11:16:26;61.67;;;27.13;;
239;SDS011;104;53.590;10.004;2023-02-12T11:18:59;60.90;;;27.13;;
239;SDS011;104;53.590;10.004;2023-02-12T11:21:28;57.90;;;25.97;;
239;SDS011;104;53.590;10.004;2023-02-12T11:23:56;59.73;;;27.00;;
239;SDS011;104;53.590;10.004;2023-02-12T11:26:43;58.67;;;25.50;;
239;SDS011;104;53.590;10.004;2023-02-12T11:29:18;53.20;;;25.23;;
239;SDS011;104;53.590;10.004;2023-02-12T11:31:58;56.83;;;25.70;;
239;SDS011;104;53.590;10.004;2023-02-12T11:34:26;61.47;;;27.47;;
239;SDS011;104;53.590;10.004;2023-02-12T11:36:54;55.90;;;26.30;;
239;SDS011;104;53.590;10.004;2023-02-12T11:39:23;58.90;;;26.30;;
239;SDS011;104;53.590;10.004;2023-02-12T11:41:53;62.70;;;26.50;;
239;SDS011;104;53.590;10.004;2023-02-12T11:44:24;57.17;;;26.37;;
239;SDS011;104;53.590;10.004;2023-02-12T11:46:54;54.27;;;25.13;;
239;SDS011;104;53.590;10.004;2023-02-12T11:49:24;54.80;;;25.70;;
239;SDS011;104;53.590;10.004;2023-02-12T11:51:53;57.20;;;25.37;;
239;SDS011;104;53.590;10.004;2023-02-12T11:54:21;55.53;;;26.00;;
239;SDS011;104;53.590;10.004;2023-02-12T11:56:51;56.70;;;25.90;;
239;SDS011;104;53.590;10.004;2023-02-12T11:59:31;60.00;;;26.10;;
239;SDS011;104;53.590;10.004;2023-02-12T12:02:02;54.67;;;24.73;;
239;SDS011;104;53.590;10.004;2023-02-12T12:04:39;59.40;;;26.70;;
239;SDS011;104;53.590;10.004;2023-02-12T12:07:10;55.70;;;25.60;;
239;SDS011;104;53.590;10.004;2023-02-12T12:09:42;58.83;;;25.40;;
239;SDS011;104;53.590;10.004;2023-02-12T12:12:15;63.50;;;27.83;;
239;SDS011;104;53.590;10.004;2023-02-12T12:14:47;61.53;;;27.37;;
239;SDS011;104;53.590;10.004;2023-02-12T12:17:43;64.17;;;26.47;;
239;SDS011;104;53.590;10.004;2023-02-12T12:20:31;57.80;;;26.23;;
239;SDS011;104;53.590;10.004;2023-02-12T12:23:02;58.63;;;25.50;;
239;SDS011;104;53.590;10.004;2023-02-12T12:25:35;58.30;;;27.00;;
239;SDS011;104;53.590;10.004;2023-02-12T12:28:11;68.00;;;30.90;;
239;SDS011;104;53.590;10.004;2023-02-12T12:30:57;58.67;;;26.37;;
239;SDS011;104;53.590;10.004;2023-02-12T12:33:31;64.97;;;27.97;;
239;SDS011;104;53.590;10.004;2023-02-12T12:36:07;58.63;;;27.50;;
239;SDS011;104;53.590;10.004;2023-02-12T12:38:58;52.60;;;25.60;;
239;SDS011;104;53.590;10.004;2023-02-12T12:41:35;60.37;;;25.83;;
239;SDS011;104;53.590;10.004;2023-02-12T12:44:08;58.43;;;26.50;;
239;SDS011;104;53.590;10.004;2023-02-12T12:46:57;60.33;;;24.20;;
239;SDS011;104;53.590;10.004;2023-02-12T12:49:40;61.27;;;26.80;;
239;SDS011;104;53.590;10.004;2023-02-12T12:55:20;58.87;;;26.47;;
239;SDS011;104;53.590;10.004;2023-02-12T12:58:04;55.13;;;24.20;;
239;SDS011;104;53.590;10.004;2023-02-12T13:00:45;60.00;;;25.93;;
239;SDS011;104;53.590;10.004;2023-02-12T13:06:33;52.10;;;26.20;;
239;SDS011;104;53.590;10.004;2023-02-12T13:09:19;55.27;;;26.20;;
239;SDS011;104;53.590;10.004;2023-02-12T13:11:59;53.03;;;25.93;;
239;SDS011;104;53.590;10.004;2023-02-12T13:14:39;59.67;;;26.83;;
239;SDS011;104;53.590;10.004;2023-02-12T13:17:12;51.50;;;24.20;;
239;SDS011;104;53.590;10.004;2023-02-12T13:19:46;58.13;;;26.73;;
239;SDS011;104;53.590;10.004;2023-02-12T13:22:22;55.30;;;26.90;;
239;SDS011;104;53.590;10.004;2023-02-12T13:24:58;62.43;;;29.13;;
239;SDS011;104;53.590;10.004;2023-02-12T13:27:33;54.53;;;25.10;;
239;SDS011;104;53.590;10.004;2023-02-12T13:30:05;49.20;;;24.90;;
239;SDS011;104;53.590;10.004;2023-02-12T13:32:42;52.83;;;25.97;;
239;SDS011;104;53.590;10.004;2023-02-12T13:35:14;64.13;;;28.70;;
239;SDS011;104;53.590;10.004;2023-02-12T13:37:46;49.63;;;25.10;;
239;SDS011;104;53.590;10.004;2023-02-12T13:40:16;64.90;;;28.87;;
239;SDS011;104;53.590;10.004;2023-02-12T13:42:46;55.90;;;27.00;;
239;SDS011;104;53.590;10.004;2023-02-12T13:45:20;58.13;;;27.87;;
239;SDS011;104;53.590;10.004;2023-02-12T13:47:58;54.87;;;26.37;;
239;SDS011;104;53.590;10.004;2023-02-12T13:50:47;48.30;;;25.30;;
239;SDS011;104;53.590;10.004;2023-02-12T13:53:24;55.60;;;26.33;;
239;SDS011;104;53.590;10.004;2023-02-12T13:56:04;58.97;;;26.50;;
239;SDS011;104;53.590;10.004;2023-02-12T13:58:44;55.20;;;24.90;;
239;SDS011;104;53.590;10.004;2023-02-12T14:04:15;50.27;;;23.90;;
239;SDS011;104;53.590;10.004;2023-02-12T14:06:54;48.83;;;23.40;;
239;SDS011;104;53.590;10.004;2023-02-12T14:09:28;50.20;;;24.87;;
239;SDS011;104;53.590;10.004;2023-02-12T14:11:56;43.90;;;22.63;;
239;SDS011;104;53.590;10.004;2023-02-12T14:14:28;38.30;;;20.80;;
239;SDS011;104;53.590;10.004;2023-02-12T14:16:57;42.87;;;21.30;;
239;SDS011;104;53.590;10.004;2023-02-12T14:20:07;47.80;;;22.40;;
239;SDS011;104;53.590;10.004;2023-02-12T14:22:56;51.90;;;24.53;;
239;SDS011;104;53.590;10.004;2023-02-12T14:25:43;48.47;;;23.23;;
239;SDS011;104;53.590;10.004;2023-02-12T14:28:19;49.33;;;22.87;;
239;SDS011;104;53.590;10.004;2023-02-12T14:31:19;47.80;;;22.73;;
239;SDS011;104;53.590;10.004;2023-02-12T14:33:48;62.23;;;27.37;;
239;SDS011;104;53.590;10.004;2023-02-12T14:36:19;52.07;;;25.33;;
239;SDS011;104;53.590;10.004;2023-02-12T14:38:56;57.40;;;25.30;;
239;SDS011;104;53.590;10.004;2023-02-12T14:41:26;59.47;;;26.67;;
239;SDS011;104;53.590;10.004;2023-02-12T14:50:17;56.33;;;26.33;;
239;SDS011;104;53.590;10.004;2023-02-12T14:52:49;60.07;;;24.97;;
239;SDS011;104;53.590;10.004;2023-02-12T14:55:24;49.30;;;25.10;;
239;SDS011;104;53.590;10.004;2023-02-12T14:57:59;55.27;;;26.30;;
239;SDS011;104;53.590;10.004;2023-02-12T15:00:28;52.03;;;25.23;;
239;SDS011;104;53.590;10.004;2023-02-12T15:02:58;53.83;;;26.00;;
239;SDS011;104;53.590;10.004;2023-02-12T15:05:28;51.03;;;24.03;;
239;SDS011;104;53.590;10.004;2023-02-12T15:07:57;54.37;;;25.57;;
239;SDS011;104;53.590;10.004;2023-02-12T15:10:27;53.07;;;24.87;;
239;SDS011;104;53.590;10.004;2023-02-12T15:12:56;59.90;;;26.13;;
239;SDS011;104;53.590;10.004;2023-02-12T15:15:30;58.20;;;26.47;;
239;SDS011;104;53.590;10.004;2023-02-12T15:18:01;78.47;;;28.07;;
239;SDS011;104;53.590;10.004;2023-02-12T15:20:33;51.30;;;24.77;;
239;SDS011;104;53.590;10.004;2023-02-12T15:25:58;53.83;;;22.97;;
239;SDS011;104;53.590;10.004;2023-02-12T15:28:27;53.73;;;24.87;;
239;SDS011;104;53.590;10.004;2023-02-12T15:31:00;53.40;;;24.77;;
239;SDS011;104;53.590;10.004;2023-02-12T15:33:30;54.27;;;25.20;;
239;SDS011;104;53.590;10.004;2023-02-12T15:35:58;52.73;;;24.90;;
239;SDS011;104;53.590;10.004;2023-02-12T15:38:27;58.80;;;25.57;;
239;SDS011;104;53.590;10.004;2023-02-12T15:40:57;56.87;;;25.77;;
239;SDS011;104;53.590;10.004;2023-02-12T15:43:25;57.30;;;25.93;;
239;SDS011;104;53.590;10.004;2023-02-12T15:45:54;50.90;;;24.63;;